createdAt,value
2023-01-06T00:02:05.991Z,99155.30
2023-01-06T00:07:07.828Z,99163.44
2023-01-06T00:12:12.168Z,99162.11
2023-01-06T00:17:14.282Z,99168.09
2023-01-06T00:22:16.174Z,99171.81
2023-01-06T00:27:17.879Z,99175.05
2023-01-06T00:32:21.880Z,99184.77
2023-01-06T00:37:23.607Z,99191.55
2023-01-06T00:42:26.629Z,99197.41
2023-01-06T00:47:28.290Z,99206.06
2023-01-06T00:52:30.179Z,99217.34
2023-01-06T00:57:33.295Z,99227.52
2023-01-06T01:02:35.476Z,99237.05
2023-01-06T01:07:37.448Z,99239.05
2023-01-06T01:12:39.177Z,99243.66
2023-01-06T01:17:41.204Z,99251.29
2023-01-06T01:22:42.930Z,99258.86
2023-01-06T01:27:44.641Z,99266.52
2023-01-06T01:32:47.381Z,99275.15
2023-01-06T01:37:49.139Z,99280.91
2023-01-06T01:42:50.868Z,99284.84
2023-01-06T01:48:01.167Z,99286.13
2023-01-06T01:53:15.891Z,99295.34
2023-01-06T01:58:31.170Z,99300.98
2023-01-06T02:03:33.099Z,99303.64
2023-01-06T02:08:41.804Z,99306.27
2023-01-06T02:13:47.651Z,99306.52
2023-01-06T02:18:56.126Z,99308.38
2023-01-06T02:24:21.168Z,99308.03
2023-01-06T02:30:10.886Z,99299.75
2023-01-06T02:35:35.364Z,99302.98
2023-01-06T02:40:40.454Z,99310.45
2023-01-06T02:46:01.830Z,99314.45
2023-01-06T02:51:16.815Z,99324.93
2023-01-06T02:56:25.518Z,99330.71
2023-01-06T03:01:41.850Z,99332.61
2023-01-06T03:06:47.172Z,99337.83
2023-01-06T03:11:51.802Z,99334.23
2023-01-06T03:16:54.848Z,99332.05
2023-01-06T03:21:59.057Z,99333.91
2023-01-06T03:27:01.135Z,99326.91
2023-01-06T03:32:27.732Z,99330.05
2023-01-06T03:37:40.506Z,99333.39
2023-01-06T03:43:13.668Z,99348.98
2023-01-06T03:48:22.692Z,99351.66
2023-01-06T03:53:36.909Z,99352.04
2023-01-06T03:58:40.810Z,99351.35
2023-01-06T04:03:44.896Z,99348.73
2023-01-06T04:08:47.770Z,99343.02
2023-01-06T04:13:49.752Z,99334.23
2023-01-06T04:18:51.570Z,99333.38
2023-01-06T04:23:53.400Z,99331.71
2023-01-06T04:28:55.632Z,99330.04
2023-01-06T04:33:57.498Z,99334.61
2023-01-06T04:38:59.649Z,99342.65
2023-01-06T04:44:01.616Z,99348.64
2023-01-06T04:49:03.548Z,99349.05
2023-01-06T04:54:06.257Z,99349.44
2023-01-06T04:59:07.997Z,99353.14
2023-01-06T05:04:09.900Z,99360.81
2023-01-06T05:09:11.754Z,99365.73
2023-01-06T05:14:13.564Z,99362.27
2023-01-06T05:19:15.310Z,99365.69
2023-01-06T05:24:17.021Z,99366.35
2023-01-06T05:29:18.812Z,99367.61
2023-01-06T05:34:20.494Z,99373.21
2023-01-06T05:39:22.422Z,99375.46
2023-01-06T05:44:24.144Z,99366.30
2023-01-06T05:49:26.003Z,99386.02
2023-01-06T05:54:27.655Z,99395.52
2023-01-06T05:59:29.365Z,99398.63
2023-01-06T06:04:31.072Z,99402.77
2023-01-06T06:09:32.792Z,99407.19
2023-01-06T06:14:34.500Z,99408.88
2023-01-06T06:19:36.204Z,99405.14
2023-01-06T06:24:38.133Z,99410.14
2023-01-06T06:29:39.791Z,99415.42
2023-01-06T06:34:41.763Z,99413.39
2023-01-06T06:39:43.453Z,99384.31
2023-01-06T06:44:45.142Z,99409.63
2023-01-06T06:49:46.875Z,99403.83
2023-01-06T06:54:48.547Z,99396.08
2023-01-06T06:59:50.233Z,99386.65
2023-01-06T07:04:51.898Z,99388.86
2023-01-06T07:09:53.578Z,99396.19
2023-01-06T07:14:55.267Z,99414.73
2023-01-06T07:19:56.933Z,99424.46
2023-01-06T07:24:58.639Z,99429.15
2023-01-06T07:30:00.528Z,99434.27
2023-01-06T07:35:02.225Z,99432.39
2023-01-06T07:40:04.571Z,99438.77
2023-01-06T07:45:10.003Z,99437.28
2023-01-06T07:50:11.721Z,99431.86
2023-01-06T07:55:13.474Z,99427.20
2023-01-06T08:00:15.641Z,99424.98
2023-01-06T08:05:17.392Z,99431.42
2023-01-06T08:10:19.098Z,99432.23
2023-01-06T08:15:20.859Z,99431.11
2023-01-06T08:20:23.088Z,99433.63
2023-01-06T08:25:24.986Z,99434.64
2023-01-06T08:30:27.202Z,99433.17
2023-01-06T08:35:28.884Z,99446.94
2023-01-06T08:40:30.638Z,99448.72
2023-01-06T08:45:32.374Z,99452.95
2023-01-06T08:50:34.054Z,99456.92
2023-01-06T08:55:39.648Z,99454.27
2023-01-06T09:00:43.300Z,99452.90
2023-01-06T09:05:52.491Z,99455.77
2023-01-06T09:10:54.204Z,99456.13
2023-01-06T09:15:55.936Z,99445.89
2023-01-06T09:20:57.645Z,99446.05
2023-01-06T09:25:59.525Z,99444.05
2023-01-06T09:31:01.646Z,99437.02
2023-01-06T09:36:03.802Z,99427.63
2023-01-06T09:41:17.491Z,99413.11
2023-01-06T09:46:23.950Z,99418.67
2023-01-06T09:51:27.863Z,99411.02
2023-01-06T09:56:30.672Z,99397.21
2023-01-06T10:01:38.694Z,99379.79
2023-01-06T10:06:56.043Z,99371.58
2023-01-06T10:12:52.540Z,99364.63
2023-01-06T10:18:21.558Z,99355.76
2023-01-06T10:23:40.095Z,99349.77
2023-01-06T10:28:44.825Z,99340.41
2023-01-06T10:33:52.358Z,99333.25
2023-01-06T10:38:55.247Z,99338.41
2023-01-06T10:43:57.798Z,99326.91
2023-01-06T10:49:01.107Z,99318.08
2023-01-06T10:54:08.757Z,99311.79
2023-01-06T10:59:12.029Z,99302.70
2023-01-06T11:04:15.398Z,99293.02
2023-01-06T11:09:39.469Z,99288.80
2023-01-06T11:14:41.800Z,99299.35
2023-01-06T11:19:45.697Z,99284.73
2023-01-06T11:24:53.200Z,99280.04
2023-01-06T11:29:55.273Z,99276.85
2023-01-06T11:35:03.555Z,99269.77
2023-01-06T11:40:33.626Z,99268.02
2023-01-06T11:45:37.445Z,99260.05
2023-01-06T11:50:39.248Z,99247.70
2023-01-06T11:55:41.381Z,99227.95
2023-01-06T12:00:52.833Z,99224.40
2023-01-06T12:06:05.891Z,99232.09
2023-01-06T12:11:16.722Z,99232.40
2023-01-06T12:16:32.758Z,99230.78
2023-01-06T12:21:36.630Z,99231.34
2023-01-06T12:26:39.990Z,99235.57
2023-01-06T12:31:55.326Z,99226.44
2023-01-06T12:37:01.834Z,99218.11
2023-01-06T12:42:15.595Z,99195.68
2023-01-06T12:47:23.370Z,99189.14
2023-01-06T12:52:48.083Z,99180.15
2023-01-06T12:58:38.916Z,99165.80
2023-01-06T13:04:06.039Z,99162.69
2023-01-06T13:09:23.139Z,99153.07
2023-01-06T13:14:52.955Z,99150.66
2023-01-06T13:19:57.880Z,99143.73
2023-01-06T13:25:25.258Z,99138.95
2023-01-06T13:30:41.806Z,99132.70
2023-01-06T13:35:49.515Z,99123.94
2023-01-06T13:40:53.377Z,99111.67
2023-01-06T13:46:01.905Z,99108.70
2023-01-06T13:51:07.385Z,99108.54
2023-01-06T13:56:12.216Z,99100.30
2023-01-06T14:01:20.203Z,99091.91
2023-01-06T14:06:22.035Z,99098.00
2023-01-06T14:11:30.805Z,99106.95
2023-01-06T14:16:44.555Z,99097.25
2023-01-06T14:21:49.365Z,99103.13
2023-01-06T14:26:58.250Z,99105.02
2023-01-06T14:31:59.897Z,99104.17
2023-01-06T14:37:03.409Z,99103.06
2023-01-06T14:42:31.038Z,99092.73
2023-01-06T14:47:46.021Z,99087.27
2023-01-06T14:52:57.556Z,99074.96
2023-01-06T14:57:59.318Z,99075.05
2023-01-06T15:03:03.937Z,99066.61
2023-01-06T15:08:15.072Z,99059.36
2023-01-06T15:13:31.796Z,99063.98
2023-01-06T15:18:42.815Z,99076.38
2023-01-06T15:23:50.972Z,99074.20
2023-01-06T15:29:00.113Z,99070.69
2023-01-06T15:34:08.049Z,99070.52
2023-01-06T15:39:14.874Z,99050.29
2023-01-06T15:44:25.670Z,99036.44
2023-01-06T15:49:36.728Z,99033.92
2023-01-06T15:54:43.899Z,99039.88
2023-01-06T16:00:04.471Z,99033.38
2023-01-06T16:05:07.254Z,99042.34
2023-01-06T16:10:59.625Z,99037.09
2023-01-06T16:16:16.070Z,99044.30
2023-01-06T16:21:24.749Z,99041.42
2023-01-06T16:26:33.407Z,99040.20
2023-01-06T16:31:38.996Z,99045.34
2023-01-06T16:36:40.907Z,99050.38
2023-01-06T16:42:47.601Z,99050.48
2023-01-06T16:47:50.409Z,99043.33
2023-01-06T16:53:02.428Z,99033.33
2023-01-06T16:58:18.011Z,99035.23
2023-01-06T17:03:26.214Z,99038.16
2023-01-06T17:08:30.304Z,99050.14
2023-01-06T17:13:46.216Z,99051.38
2023-01-06T17:18:56.527Z,99046.52
2023-01-06T17:24:19.697Z,99055.08
2023-01-06T17:29:21.565Z,99044.56
2023-01-06T17:34:31.877Z,99038.03
2023-01-06T17:39:37.924Z,99047.02
2023-01-06T17:44:51.635Z,99046.25
2023-01-06T17:49:55.831Z,99044.35
2023-01-06T17:55:18.429Z,99037.48
2023-01-06T18:00:33.207Z,99035.91
2023-01-06T18:05:34.986Z,99029.96
2023-01-06T18:10:41.823Z,99034.56
2023-01-06T18:15:50.303Z,99035.41
2023-01-06T18:20:59.928Z,99045.33
2023-01-06T18:26:30.323Z,99042.73
2023-01-06T18:31:35.765Z,99054.68
2023-01-06T18:36:37.730Z,99052.84
2023-01-06T18:41:39.549Z,99019.46
2023-01-06T18:46:42.199Z,99043.87
2023-01-06T18:51:43.856Z,99048.39
2023-01-06T18:56:45.997Z,99050.43
2023-01-06T19:01:54.977Z,99048.93
2023-01-06T19:07:03.341Z,99055.47
2023-01-06T19:12:07.809Z,99055.84
2023-01-06T19:17:15.790Z,99062.98
2023-01-06T19:22:36.135Z,99062.49
2023-01-06T19:27:49.681Z,99068.19
2023-01-06T19:32:51.351Z,99070.54
2023-01-06T19:38:09.697Z,99074.09
2023-01-06T19:43:15.947Z,99081.39
2023-01-06T19:48:25.226Z,99088.08
2023-01-06T19:53:44.001Z,99096.03
2023-01-06T19:59:27.249Z,99103.33
2023-01-06T20:04:29.095Z,99110.33
2023-01-06T20:09:33.420Z,99116.11
2023-01-06T20:14:36.437Z,99119.16
2023-01-06T20:19:38.142Z,99122.55
2023-01-06T20:24:40.093Z,99124.39
2023-01-06T20:29:41.913Z,99130.88
2023-01-06T20:34:43.634Z,99135.84
2023-01-06T20:39:47.740Z,99138.73
2023-01-06T20:44:49.368Z,99143.67
2023-01-06T20:49:52.263Z,99147.96
2023-01-06T20:54:54.345Z,99152.73
2023-01-06T20:59:55.999Z,99152.12
2023-01-06T21:04:57.664Z,99149.77
2023-01-06T21:10:00.369Z,99149.14
2023-01-06T21:15:02.599Z,99154.66
2023-01-06T21:20:06.277Z,99159.11
2023-01-06T21:25:08.996Z,99161.30
2023-01-06T21:30:11.634Z,99157.02
2023-01-06T21:35:14.101Z,99160.66
2023-01-06T21:40:15.916Z,99162.16
2023-01-06T21:45:17.721Z,99157.48
2023-01-06T21:50:19.640Z,99156.17
2023-01-06T21:55:22.047Z,99162.48
2023-01-06T22:00:23.748Z,99166.61
2023-01-06T22:05:25.451Z,99172.35
2023-01-06T22:10:27.461Z,99175.77
2023-01-06T22:15:30.048Z,99184.49
2023-01-06T22:20:32.232Z,99186.94
2023-01-06T22:25:33.972Z,99183.42
2023-01-06T22:30:36.181Z,99181.66
2023-01-06T22:35:38.359Z,99188.44
2023-01-06T22:40:40.092Z,99197.71
2023-01-06T22:45:41.809Z,99199.51
2023-01-06T22:50:43.533Z,99204.52
2023-01-06T22:55:45.176Z,99206.85
2023-01-06T23:00:46.831Z,99208.45
2023-01-06T23:05:55.702Z,99208.10
2023-01-06T23:11:02.987Z,99204.43
2023-01-06T23:16:06.705Z,99212.46
2023-01-06T23:21:18.820Z,99219.88
2023-01-06T23:26:28.175Z,99227.73
2023-01-06T23:31:32.773Z,99230.27
2023-01-06T23:36:36.691Z,99224.80
2023-01-06T23:41:41.372Z,99225.15
2023-01-06T23:46:44.136Z,99232.60
2023-01-06T23:51:46.412Z,99226.66
2023-01-06T23:56:48.080Z,99228.30
